TOZEUR current weather conditions

sailwx.info

Wind from 090 at 20 knots

Air temperature 30.0° C
Dewpoint 12.0° C

Last reported at 2015-Jul-01 21:00 UTC.
Time now 2015-Jul-01 23:13 UTC

Location: N 33°55' E 008°06'.
View on Google Maps.

See reports from other nearby stations

  
Tides and Currents Weather Stations Pressure Air Temp Water Temp Dewpoint Dewpoint Depression Visibility Wind Speed Wind Dir Waves Ship Positions
date/time (UTC)wind fromknots sea level pressurealtimeterstation pressurevisibilityair tempwater tempwave heightnotes
2015-Jul-01 22:00 100 19 29.0
2015-Jul-01 21:00 090 20 30.0
2015-Jul-01 20:00 090 19 32.0
2015-Jul-01 19:00 090 15 34.0
2015-Jul-01 18:00 090 12 35.0
2015-Jul-01 17:00 080 12 36.0
2015-Jul-01 16:00 100 8 36.0
2015-Jul-01 15:00 100 12 37.0
2015-Jul-01 14:00 110 11 36.0
2015-Jul-01 13:00 110 14 35.0
2015-Jul-01 12:00 100 14 34.0
2015-Jul-01 11:00 090 16 33.0
2015-Jul-01 10:00 090 14 32.0
2015-Jul-01 09:00 100 14 30.0
2015-Jul-01 08:00 090 14 29.0
2015-Jul-01 07:00 090 16 28.0
2015-Jul-01 06:00 26.0
2015-Jul-01 05:00 25.0
2015-Jul-01 04:00 26.0
2015-Jul-01 03:00 26.0
2015-Jul-01 02:00 27.0
2015-Jul-01 01:00 27.0
2015-Jul-01 00:00 28.0
2015-Jun-30 23:00 29.0
2015-Jun-30 22:00 29.0
2015-Jun-30 21:00 31.0
2015-Jun-30 20:00 32.0
2015-Jun-30 19:00 35.0
2015-Jun-30 18:00 36.0
2015-Jun-30 17:00 120 6 37.0
2015-Jun-30 16:00 090 6 37.0
2015-Jun-30 15:00 37.0
2015-Jun-30 14:00 090 7 36.0
2015-Jun-30 13:00 120 11 35.0
2015-Jun-30 12:00 090 13 35.0
2015-Jun-30 10:00 090 13 32.0
2015-Jun-30 09:00 090 14 30.0
2015-Jun-30 08:00 090 15 29.0
2015-Jun-30 07:00 090 16 28.0
2015-Jun-30 06:00 100 15 27.0
2015-Jun-30 04:00 090 14 26.0
2015-Jun-30 03:00 080 12 26.0
2015-Jun-30 02:00 080 15 27.0
2015-Jun-30 01:00 27.0
2015-Jun-30 00:00 28.0
2015-Jun-29 23:00 29.0